sensor_id;sensor_type;location;lat;lon;timestamp;pressure;altitude;pressure_sealevel;temperature;humidity
55990;BME280;41875;55.806;38.082;2022-11-09T00:01:59;99249.16;;;9.30;69.68
55990;BME280;41875;55.806;38.082;2022-11-09T00:04:29;99241.13;;;9.13;70.12
55990;BME280;41875;55.806;38.082;2022-11-09T00:07:05;99252.00;;;9.10;70.71
55990;BME280;41875;55.806;38.082;2022-11-09T00:09:35;99252.78;;;9.03;70.80
55990;BME280;41875;55.806;38.082;2022-11-09T00:12:05;99248.28;;;9.21;70.22
55990;BME280;41875;55.806;38.082;2022-11-09T00:14:33;99256.84;;;9.23;70.16
55990;BME280;41875;55.806;38.082;2022-11-09T00:17:02;99255.25;;;9.30;69.64
55990;BME280;41875;55.806;38.082;2022-11-09T00:19:32;99265.00;;;9.04;70.17
55990;BME280;41875;55.806;38.082;2022-11-09T00:22:01;99256.69;;;8.90;70.88
55990;BME280;41875;55.806;38.082;2022-11-09T00:24:30;99256.25;;;9.29;69.58
55990;BME280;41875;55.806;38.082;2022-11-09T00:26:58;99256.66;;;9.17;70.04
55990;BME280;41875;55.806;38.082;2022-11-09T00:29:27;99269.34;;;9.13;70.25
55990;BME280;41875;55.806;38.082;2022-11-09T00:31:58;99258.66;;;9.14;70.07
55990;BME280;41875;55.806;38.082;2022-11-09T00:34:27;99265.91;;;9.47;69.16
55990;BME280;41875;55.806;38.082;2022-11-09T00:36:58;99258.00;;;8.94;70.28
55990;BME280;41875;55.806;38.082;2022-11-09T00:39:29;99258.19;;;9.19;69.67
55990;BME280;41875;55.806;38.082;2022-11-09T00:41:57;99256.56;;;9.26;69.67
55990;BME280;41875;55.806;38.082;2022-11-09T00:44:29;99260.50;;;9.22;69.89
55990;BME280;41875;55.806;38.082;2022-11-09T00:46:57;99264.97;;;9.56;69.00
55990;BME280;41875;55.806;38.082;2022-11-09T00:49:26;99264.00;;;9.31;69.41
55990;BME280;41875;55.806;38.082;2022-11-09T00:51:54;99256.03;;;9.49;69.11
55990;BME280;41875;55.806;38.082;2022-11-09T00:54:24;99263.66;;;9.60;68.92
55990;BME280;41875;55.806;38.082;2022-11-09T00:56:53;99263.19;;;9.30;69.61
55990;BME280;41875;55.806;38.082;2022-11-09T00:59:21;99264.88;;;9.40;69.97
55990;BME280;41875;55.806;38.082;2022-11-09T01:01:50;99263.84;;;9.67;68.59
55990;BME280;41875;55.806;38.082;2022-11-09T01:04:18;99262.00;;;9.25;69.65
55990;BME280;41875;55.806;38.082;2022-11-09T01:06:47;99266.50;;;9.33;69.74
55990;BME280;41875;55.806;38.082;2022-11-09T01:09:16;99269.56;;;9.20;70.46
55990;BME280;41875;55.806;38.082;2022-11-09T01:11:46;99271.63;;;9.34;70.05
55990;BME280;41875;55.806;38.082;2022-11-09T01:14:14;99265.81;;;9.65;69.01
55990;BME280;41875;55.806;38.082;2022-11-09T01:16:43;99272.75;;;9.58;69.08
55990;BME280;41875;55.806;38.082;2022-11-09T01:19:11;99274.03;;;9.54;68.90
55990;BME280;41875;55.806;38.082;2022-11-09T01:21:40;99270.25;;;9.56;69.05
55990;BME280;41875;55.806;38.082;2022-11-09T01:24:09;99264.19;;;9.38;69.67
55990;BME280;41875;55.806;38.082;2022-11-09T01:26:37;99265.22;;;9.80;68.48
55990;BME280;41875;55.806;38.082;2022-11-09T01:29:07;99268.56;;;9.90;67.52
55990;BME280;41875;55.806;38.082;2022-11-09T01:31:35;99266.44;;;9.51;69.13
55990;BME280;41875;55.806;38.082;2022-11-09T01:34:04;99271.63;;;9.69;68.88
55990;BME280;41875;55.806;38.082;2022-11-09T01:36:32;99274.72;;;10.07;67.76
55990;BME280;41875;55.806;38.082;2022-11-09T01:39:01;99273.00;;;9.81;68.16
55990;BME280;41875;55.806;38.082;2022-11-09T01:41:29;99274.03;;;9.54;69.18
55990;BME280;41875;55.806;38.082;2022-11-09T01:44:08;99273.44;;;9.60;69.55
55990;BME280;41875;55.806;38.082;2022-11-09T01:46:45;99276.09;;;9.76;68.71
55990;BME280;41875;55.806;38.082;2022-11-09T01:49:23;99279.34;;;9.62;68.85
55990;BME280;41875;55.806;38.082;2022-11-09T01:51:58;99283.22;;;9.68;69.24
55990;BME280;41875;55.806;38.082;2022-11-09T01:54:34;99281.38;;;9.68;69.13
55990;BME280;41875;55.806;38.082;2022-11-09T01:57:06;99287.81;;;9.66;68.96
55990;BME280;41875;55.806;38.082;2022-11-09T01:59:42;99291.78;;;9.70;69.02
55990;BME280;41875;55.806;38.082;2022-11-09T02:02:13;99287.28;;;9.62;69.56
55990;BME280;41875;55.806;38.082;2022-11-09T02:04:46;99286.97;;;9.57;69.60
55990;BME280;41875;55.806;38.082;2022-11-09T02:07:18;99296.00;;;9.54;69.80
55990;BME280;41875;55.806;38.082;2022-11-09T02:09:52;99282.19;;;9.69;69.61
55990;BME280;41875;55.806;38.082;2022-11-09T02:12:25;99291.94;;;9.60;69.72
55990;BME280;41875;55.806;38.082;2022-11-09T02:14:58;99279.63;;;9.42;70.31
55990;BME280;41875;55.806;38.082;2022-11-09T02:17:30;99291.25;;;9.58;70.25
55990;BME280;41875;55.806;38.082;2022-11-09T02:19:59;99292.19;;;9.49;70.51
55990;BME280;41875;55.806;38.082;2022-11-09T02:22:31;99290.19;;;9.77;69.86
55990;BME280;41875;55.806;38.082;2022-11-09T02:25:01;99294.09;;;9.65;69.87
55990;BME280;41875;55.806;38.082;2022-11-09T02:27:30;99294.91;;;9.65;70.16
55990;BME280;41875;55.806;38.082;2022-11-09T02:30:00;99295.09;;;9.72;70.14
55990;BME280;41875;55.806;38.082;2022-11-09T02:32:30;99301.25;;;9.72;70.27
55990;BME280;41875;55.806;38.082;2022-11-09T02:34:59;99295.09;;;9.64;70.37
55990;BME280;41875;55.806;38.082;2022-11-09T02:37:34;99297.69;;;9.55;71.02
55990;BME280;41875;55.806;38.082;2022-11-09T02:40:08;99306.06;;;9.77;70.22
55990;BME280;41875;55.806;38.082;2022-11-09T02:42:38;99281.81;;;9.90;69.40
55990;BME280;41875;55.806;38.082;2022-11-09T02:45:08;99296.88;;;10.06;69.02
55990;BME280;41875;55.806;38.082;2022-11-09T02:47:39;99303.88;;;9.72;70.17
55990;BME280;41875;55.806;38.082;2022-11-09T02:50:08;99294.03;;;9.56;70.71
55990;BME280;41875;55.806;38.082;2022-11-09T02:52:38;99296.38;;;9.59;70.75
55990;BME280;41875;55.806;38.082;2022-11-09T02:55:08;99301.94;;;9.48;71.30
55990;BME280;41875;55.806;38.082;2022-11-09T02:57:38;99301.44;;;9.44;71.26
55990;BME280;41875;55.806;38.082;2022-11-09T03:00:08;99299.78;;;9.43;71.80
55990;BME280;41875;55.806;38.082;2022-11-09T03:02:37;99299.91;;;9.42;71.63
55990;BME280;41875;55.806;38.082;2022-11-09T03:05:06;99297.28;;;9.42;72.11
55990;BME280;41875;55.806;38.082;2022-11-09T03:07:40;99296.50;;;9.50;71.85
55990;BME280;41875;55.806;38.082;2022-11-09T03:10:10;99294.41;;;9.61;71.17
55990;BME280;41875;55.806;38.082;2022-11-09T03:12:40;99289.81;;;9.72;70.70
55990;BME280;41875;55.806;38.082;2022-11-09T03:15:12;99306.38;;;9.74;70.81
55990;BME280;41875;55.806;38.082;2022-11-09T03:17:45;99309.25;;;9.97;69.89
55990;BME280;41875;55.806;38.082;2022-11-09T03:20:14;99306.25;;;9.84;70.24
55990;BME280;41875;55.806;38.082;2022-11-09T03:22:44;99305.41;;;9.83;70.63
55990;BME280;41875;55.806;38.082;2022-11-09T03:25:13;99301.06;;;9.74;70.91
55990;BME280;41875;55.806;38.082;2022-11-09T03:27:42;99303.16;;;9.62;71.32
55990;BME280;41875;55.806;38.082;2022-11-09T03:30:12;99305.88;;;9.79;70.79
55990;BME280;41875;55.806;38.082;2022-11-09T03:32:41;99306.25;;;9.84;70.63
55990;BME280;41875;55.806;38.082;2022-11-09T03:35:16;99312.47;;;10.09;69.86
55990;BME280;41875;55.806;38.082;2022-11-09T03:37:46;99305.94;;;9.95;70.30
55990;BME280;41875;55.806;38.082;2022-11-09T03:40:16;99316.72;;;10.02;69.90
55990;BME280;41875;55.806;38.082;2022-11-09T03:42:47;99305.75;;;9.88;70.17
55990;BME280;41875;55.806;38.082;2022-11-09T03:45:16;99315.03;;;9.93;70.08
55990;BME280;41875;55.806;38.082;2022-11-09T03:47:45;99305.94;;;9.87;70.45
55990;BME280;41875;55.806;38.082;2022-11-09T03:50:15;99306.44;;;9.99;70.15
55990;BME280;41875;55.806;38.082;2022-11-09T03:52:46;99309.88;;;9.91;70.15
55990;BME280;41875;55.806;38.082;2022-11-09T03:55:15;99318.97;;;9.80;70.66
55990;BME280;41875;55.806;38.082;2022-11-09T03:57:44;99322.75;;;9.77;70.78
55990;BME280;41875;55.806;38.082;2022-11-09T04:00:15;99319.41;;;9.67;71.11
55990;BME280;41875;55.806;38.082;2022-11-09T04:02:44;99319.75;;;9.72;71.19
55990;BME280;41875;55.806;38.082;2022-11-09T04:05:14;99322.00;;;10.02;70.12
55990;BME280;41875;55.806;38.082;2022-11-09T04:07:47;99315.16;;;9.74;70.85
55990;BME280;41875;55.806;38.082;2022-11-09T04:10:17;99329.88;;;9.85;70.58
55990;BME280;41875;55.806;38.082;2022-11-09T04:12:46;99320.16;;;9.86;70.36
55990;BME280;41875;55.806;38.082;2022-11-09T04:15:15;99318.56;;;10.01;70.20
55990;BME280;41875;55.806;38.082;2022-11-09T04:17:43;99315.34;;;9.81;70.96
55990;BME280;41875;55.806;38.082;2022-11-09T04:20:12;99324.31;;;9.97;70.39
55990;BME280;41875;55.806;38.082;2022-11-09T04:22:41;99324.13;;;9.90;70.67
55990;BME280;41875;55.806;38.082;2022-11-09T04:25:10;99314.28;;;9.66;71.38
55990;BME280;41875;55.806;38.082;2022-11-09T04:27:39;99321.38;;;9.65;71.39
55990;BME280;41875;55.806;38.082;2022-11-09T04:30:08;99318.28;;;10.37;68.96
55990;BME280;41875;55.806;38.082;2022-11-09T04:32:39;99320.41;;;10.17;69.27
55990;BME280;41875;55.806;38.082;2022-11-09T04:35:08;99320.75;;;10.22;68.60
55990;BME280;41875;55.806;38.082;2022-11-09T04:37:37;99326.38;;;9.76;70.61
55990;BME280;41875;55.806;38.082;2022-11-09T04:40:06;99339.34;;;9.88;70.67
55990;BME280;41875;55.806;38.082;2022-11-09T04:42:36;99336.31;;;9.74;71.02
55990;BME280;41875;55.806;38.082;2022-11-09T04:45:05;99341.19;;;9.96;70.42
55990;BME280;41875;55.806;38.082;2022-11-09T04:47:34;99338.59;;;10.12;69.49
55990;BME280;41875;55.806;38.082;2022-11-09T04:50:03;99341.06;;;10.65;67.96
55990;BME280;41875;55.806;38.082;2022-11-09T04:52:31;99342.53;;;10.67;68.06
55990;BME280;41875;55.806;38.082;2022-11-09T04:55:00;99343.34;;;10.51;67.96
55990;BME280;41875;55.806;38.082;2022-11-09T04:57:29;99345.25;;;10.25;69.10
55990;BME280;41875;55.806;38.082;2022-11-09T04:59:59;99349.31;;;10.62;68.41
55990;BME280;41875;55.806;38.082;2022-11-09T05:02:31;99344.94;;;10.36;68.45
55990;BME280;41875;55.806;38.082;2022-11-09T05:04:59;99349.69;;;10.59;68.18
55990;BME280;41875;55.806;38.082;2022-11-09T05:07:29;99339.88;;;10.67;67.53
55990;BME280;41875;55.806;38.082;2022-11-09T05:09:58;99341.53;;;10.52;68.09
55990;BME280;41875;55.806;38.082;2022-11-09T05:12:27;99346.31;;;10.40;68.78
55990;BME280;41875;55.806;38.082;2022-11-09T05:14:55;99340.25;;;10.13;69.26
55990;BME280;41875;55.806;38.082;2022-11-09T05:17:25;99343.97;;;9.94;70.06
55990;BME280;41875;55.806;38.082;2022-11-09T05:19:54;99346.91;;;10.26;69.36
55990;BME280;41875;55.806;38.082;2022-11-09T05:22:22;99345.56;;;10.21;69.48
55990;BME280;41875;55.806;38.082;2022-11-09T05:25:08;99347.06;;;10.24;69.56
55990;BME280;41875;55.806;38.082;2022-11-09T05:27:39;99360.03;;;10.35;69.11
55990;BME280;41875;55.806;38.082;2022-11-09T05:30:09;99366.22;;;10.52;68.61
55990;BME280;41875;55.806;38.082;2022-11-09T05:32:39;99368.53;;;10.64;68.28
55990;BME280;41875;55.806;38.082;2022-11-09T05:35:08;99378.81;;;10.75;68.10
55990;BME280;41875;55.806;38.082;2022-11-09T05:37:37;99375.63;;;10.55;68.41
55990;BME280;41875;55.806;38.082;2022-11-09T05:40:07;99368.00;;;10.52;68.49
55990;BME280;41875;55.806;38.082;2022-11-09T05:42:37;99373.81;;;10.47;68.81
55990;BME280;41875;55.806;38.082;2022-11-09T05:45:08;99367.88;;;10.54;68.94
55990;BME280;41875;55.806;38.082;2022-11-09T05:47:58;99374.19;;;10.94;67.55
55990;BME280;41875;55.806;38.082;2022-11-09T05:50:26;99370.22;;;10.90;67.56
55990;BME280;41875;55.806;38.082;2022-11-09T05:53:09;99374.81;;;10.63;68.05
55990;BME280;41875;55.806;38.082;2022-11-09T05:55:38;99374.38;;;10.76;67.97
55990;BME280;41875;55.806;38.082;2022-11-09T05:58:07;99369.38;;;10.73;68.12
55990;BME280;41875;55.806;38.082;2022-11-09T06:00:35;99355.16;;;10.74;68.22
55990;BME280;41875;55.806;38.082;2022-11-09T06:03:09;99358.78;;;11.14;67.39
55990;BME280;41875;55.806;38.082;2022-11-09T06:05:39;99355.00;;;11.17;66.76
55990;BME280;41875;55.806;38.082;2022-11-09T06:08:10;99367.56;;;11.39;65.69
55990;BME280;41875;55.806;38.082;2022-11-09T06:10:39;99364.69;;;11.66;65.19
55990;BME280;41875;55.806;38.082;2022-11-09T06:13:08;99369.38;;;11.47;66.27
55990;BME280;41875;55.806;38.082;2022-11-09T06:15:36;99379.53;;;11.02;66.79
55990;BME280;41875;55.806;38.082;2022-11-09T06:18:06;99383.16;;;11.09;67.30
55990;BME280;41875;55.806;38.082;2022-11-09T06:20:35;99376.47;;;11.55;65.94
55990;BME280;41875;55.806;38.082;2022-11-09T06:23:03;99373.06;;;11.21;66.93
55990;BME280;41875;55.806;38.082;2022-11-09T06:25:32;99376.84;;;11.35;66.43
55990;BME280;41875;55.806;38.082;2022-11-09T06:28:02;99376.16;;;11.58;65.45
55990;BME280;41875;55.806;38.082;2022-11-09T06:30:30;99386.47;;;11.28;66.82
55990;BME280;41875;55.806;38.082;2022-11-09T06:32:59;99381.16;;;11.44;66.23
55990;BME280;41875;55.806;38.082;2022-11-09T06:35:28;99383.19;;;11.90;65.12
55990;BME280;41875;55.806;38.082;2022-11-09T06:37:58;99384.09;;;11.50;65.71
55990;BME280;41875;55.806;38.082;2022-11-09T06:40:28;99386.09;;;11.56;65.80
55990;BME280;41875;55.806;38.082;2022-11-09T06:42:56;99383.28;;;11.57;65.31
55990;BME280;41875;55.806;38.082;2022-11-09T06:45:28;99396.88;;;11.71;65.14
55990;BME280;41875;55.806;38.082;2022-11-09T06:48:01;99384.13;;;11.58;65.34
55990;BME280;41875;55.806;38.082;2022-11-09T06:50:32;99397.03;;;11.69;65.68
55990;BME280;41875;55.806;38.082;2022-11-09T06:53:03;99395.06;;;11.55;65.64
55990;BME280;41875;55.806;38.082;2022-11-09T06:55:38;99406.19;;;11.50;65.78
55990;BME280;41875;55.806;38.082;2022-11-09T06:58:15;99402.56;;;11.26;66.52
55990;BME280;41875;55.806;38.082;2022-11-09T07:00:44;99391.88;;;11.59;65.75
55990;BME280;41875;55.806;38.082;2022-11-09T07:03:14;99415.41;;;11.79;64.91
55990;BME280;41875;55.806;38.082;2022-11-09T07:05:45;99416.13;;;11.56;65.57
55990;BME280;41875;55.806;38.082;2022-11-09T07:08:20;99410.28;;;11.78;65.22
55990;BME280;41875;55.806;38.082;2022-11-09T07:10:48;99421.81;;;12.18;63.62
55990;BME280;41875;55.806;38.082;2022-11-09T07:13:17;99415.38;;;12.04;63.77
55990;BME280;41875;55.806;38.082;2022-11-09T07:15:53;99424.72;;;11.58;65.34
55990;BME280;41875;55.806;38.082;2022-11-09T07:18:29;99419.53;;;12.07;64.25
55990;BME280;41875;55.806;38.082;2022-11-09T07:20:59;99416.03;;;11.98;64.47
55990;BME280;41875;55.806;38.082;2022-11-09T07:23:46;99423.34;;;11.96;64.60
55990;BME280;41875;55.806;38.082;2022-11-09T07:26:15;99431.75;;;12.16;64.10
55990;BME280;41875;55.806;38.082;2022-11-09T07:28:47;99431.81;;;12.08;63.86
55990;BME280;41875;55.806;38.082;2022-11-09T07:31:20;99418.91;;;11.71;65.11
55990;BME280;41875;55.806;38.082;2022-11-09T07:34:04;99401.00;;;11.73;64.79
55990;BME280;41875;55.806;38.082;2022-11-09T07:36:46;99412.16;;;11.52;65.61
55990;BME280;41875;55.806;38.082;2022-11-09T07:39:14;99421.38;;;11.81;64.96
55990;BME280;41875;55.806;38.082;2022-11-09T07:41:45;99435.31;;;11.83;65.13
55990;BME280;41875;55.806;38.082;2022-11-09T07:44:14;99435.97;;;12.02;64.61
55990;BME280;41875;55.806;38.082;2022-11-09T07:46:45;99433.38;;;12.25;64.10
55990;BME280;41875;55.806;38.082;2022-11-09T07:49:15;99431.75;;;12.24;63.97
55990;BME280;41875;55.806;38.082;2022-11-09T07:51:45;99433.84;;;12.37;63.66
55990;BME280;41875;55.806;38.082;2022-11-09T07:54:14;99429.53;;;12.36;63.49
55990;BME280;41875;55.806;38.082;2022-11-09T07:56:42;99437.34;;;12.38;63.32
55990;BME280;41875;55.806;38.082;2022-11-09T07:59:11;99427.34;;;12.00;65.03
55990;BME280;41875;55.806;38.082;2022-11-09T08:01:40;99425.41;;;12.25;64.28
55990;BME280;41875;55.806;38.082;2022-11-09T08:04:09;99429.25;;;12.23;64.60
55990;BME280;41875;55.806;38.082;2022-11-09T08:06:37;99436.56;;;12.60;63.40
55990;BME280;41875;55.806;38.082;2022-11-09T08:09:07;99418.66;;;12.54;63.31
55990;BME280;41875;55.806;38.082;2022-11-09T08:11:36;99429.84;;;12.33;63.89
55990;BME280;41875;55.806;38.082;2022-11-09T08:14:04;99437.41;;;12.53;63.51
55990;BME280;41875;55.806;38.082;2022-11-09T08:16:33;99433.56;;;12.63;63.58
55990;BME280;41875;55.806;38.082;2022-11-09T08:19:04;99435.88;;;12.67;63.23
55990;BME280;41875;55.806;38.082;2022-11-09T08:21:35;99431.94;;;12.54;64.04
55990;BME280;41875;55.806;38.082;2022-11-09T08:24:03;99437.06;;;13.34;62.40
55990;BME280;41875;55.806;38.082;2022-11-09T08:26:37;99446.44;;;13.06;62.54
55990;BME280;41875;55.806;38.082;2022-11-09T08:29:07;99419.09;;;12.34;64.18
55990;BME280;41875;55.806;38.082;2022-11-09T08:31:36;99441.66;;;12.70;63.75
55990;BME280;41875;55.806;38.082;2022-11-09T08:34:10;99441.88;;;12.60;64.12
55990;BME280;41875;55.806;38.082;2022-11-09T08:36:40;99446.50;;;12.67;64.18
55990;BME280;41875;55.806;38.082;2022-11-09T08:39:08;99439.69;;;12.95;62.70
55990;BME280;41875;55.806;38.082;2022-11-09T08:41:38;99439.00;;;12.70;64.29
55990;BME280;41875;55.806;38.082;2022-11-09T08:44:07;99436.84;;;12.97;62.95
55990;BME280;41875;55.806;38.082;2022-11-09T08:46:35;99435.59;;;12.85;63.32
55990;BME280;41875;55.806;38.082;2022-11-09T08:49:07;99425.06;;;12.28;65.13
55990;BME280;41875;55.806;38.082;2022-11-09T08:51:36;99434.69;;;12.38;65.24
55990;BME280;41875;55.806;38.082;2022-11-09T08:54:04;99440.72;;;12.86;63.30
55990;BME280;41875;55.806;38.082;2022-11-09T08:56:38;99436.75;;;12.59;64.29
55990;BME280;41875;55.806;38.082;2022-11-09T08:59:07;99424.31;;;12.11;65.99
55990;BME280;41875;55.806;38.082;2022-11-09T09:01:35;99426.59;;;12.23;65.12
55990;BME280;41875;55.806;38.082;2022-11-09T09:04:04;99421.91;;;12.64;64.07
55990;BME280;41875;55.806;38.082;2022-11-09T09:06:33;99426.25;;;12.65;64.50
55990;BME280;41875;55.806;38.082;2022-11-09T09:09:02;99430.03;;;12.31;65.31
55990;BME280;41875;55.806;38.082;2022-11-09T09:11:30;99430.81;;;12.09;65.80
55990;BME280;41875;55.806;38.082;2022-11-09T09:14:00;99426.25;;;12.57;64.47
55990;BME280;41875;55.806;38.082;2022-11-09T09:16:29;99435.75;;;12.12;66.03
55990;BME280;41875;55.806;38.082;2022-11-09T09:18:57;99436.50;;;12.37;65.57
55990;BME280;41875;55.806;38.082;2022-11-09T09:21:26;99429.81;;;12.81;63.90
55990;BME280;41875;55.806;38.082;2022-11-09T09:23:55;99432.72;;;13.41;61.97
55990;BME280;41875;55.806;38.082;2022-11-09T09:26:24;99431.22;;;12.69;63.69
55990;BME280;41875;55.806;38.082;2022-11-09T09:28:55;99429.75;;;12.58;64.80
55990;BME280;41875;55.806;38.082;2022-11-09T09:31:26;99438.06;;;12.86;63.85
55990;BME280;41875;55.806;38.082;2022-11-09T09:33:55;99434.69;;;12.38;65.15
55990;BME280;41875;55.806;38.082;2022-11-09T09:36:24;99437.28;;;12.46;65.18
55990;BME280;41875;55.806;38.082;2022-11-09T09:38:53;99425.00;;;12.05;65.99
55990;BME280;41875;55.806;38.082;2022-11-09T09:44:17;99446.22;;;12.13;66.74
55990;BME280;41875;55.806;38.082;2022-11-09T09:46:52;99438.78;;;12.09;66.84
55990;BME280;41875;55.806;38.082;2022-11-09T09:49:26;99440.09;;;12.04;66.46
55990;BME280;41875;55.806;38.082;2022-11-09T09:52:00;99449.88;;;12.12;66.47
55990;BME280;41875;55.806;38.082;2022-11-09T09:54:35;99437.34;;;12.69;64.77
55990;BME280;41875;55.806;38.082;2022-11-09T09:57:12;99445.22;;;12.86;64.18
55990;BME280;41875;55.806;38.082;2022-11-09T09:59:47;99436.75;;;12.50;64.41
55990;BME280;41875;55.806;38.082;2022-11-09T10:02:23;99438.06;;;12.15;66.24
55990;BME280;41875;55.806;38.082;2022-11-09T10:04:53;99441.66;;;12.70;64.37
55990;BME280;41875;55.806;38.082;2022-11-09T10:07:27;99436.09;;;12.48;64.78
55990;BME280;41875;55.806;38.082;2022-11-09T10:10:28;99434.63;;;12.46;65.10
55990;BME280;41875;55.806;38.082;2022-11-09T10:16:12;99449.59;;;13.02;63.56
55990;BME280;41875;55.806;38.082;2022-11-09T10:19:04;99443.78;;;12.75;64.07
55990;BME280;41875;55.806;38.082;2022-11-09T10:21:44;99436.81;;;12.42;64.30
55990;BME280;41875;55.806;38.082;2022-11-09T10:24:24;99442.13;;;12.42;65.18
55990;BME280;41875;55.806;38.082;2022-11-09T10:26:56;99449.44;;;12.72;64.07
55990;BME280;41875;55.806;38.082;2022-11-09T10:29:27;99448.72;;;12.55;64.75
55990;BME280;41875;55.806;38.082;2022-11-09T10:32:04;99446.59;;;12.42;65.34
55990;BME280;41875;55.806;38.082;2022-11-09T10:34:43;99438.91;;;12.55;64.41
55990;BME280;41875;55.806;38.082;2022-11-09T10:37:18;99443.59;;;12.45;65.02
55990;BME280;41875;55.806;38.082;2022-11-09T10:39:53;99434.88;;;12.28;65.43
55990;BME280;41875;55.806;38.082;2022-11-09T10:42:44;99447.91;;;12.54;65.18
55990;BME280;41875;55.806;38.082;2022-11-09T10:45:34;99439.72;;;12.16;65.83
55990;BME280;41875;55.806;38.082;2022-11-09T10:48:30;99445.66;;;12.26;66.24
55990;BME280;41875;55.806;38.082;2022-11-09T10:51:34;99437.00;;;12.72;64.46
55990;BME280;41875;55.806;38.082;2022-11-09T10:54:26;99444.06;;;12.57;64.34
55990;BME280;41875;55.806;38.082;2022-11-09T10:57:16;99452.00;;;12.88;63.70
55990;BME280;41875;55.806;38.082;2022-11-09T11:00:13;99453.06;;;12.47;65.21
55990;BME280;41875;55.806;38.082;2022-11-09T11:03:10;99445.31;;;12.38;65.67
55990;BME280;41875;55.806;38.082;2022-11-09T11:06:14;99448.69;;;12.15;66.84
55990;BME280;41875;55.806;38.082;2022-11-09T11:09:19;99449.03;;;12.12;66.64
55990;BME280;41875;55.806;38.082;2022-11-09T11:12:13;99448.91;;;12.45;66.39
55990;BME280;41875;55.806;38.082;2022-11-09T11:15:02;99450.25;;;12.41;65.32
55990;BME280;41875;55.806;38.082;2022-11-09T11:18:01;99457.19;;;11.94;67.56
55990;BME280;41875;55.806;38.082;2022-11-09T11:21:06;99446.91;;;11.90;68.21
55990;BME280;41875;55.806;38.082;2022-11-09T11:24:11;99456.38;;;12.01;67.90
55990;BME280;41875;55.806;38.082;2022-11-09T11:27:03;99443.72;;;11.95;68.12
55990;BME280;41875;55.806;38.082;2022-11-09T11:30:02;99446.06;;;12.07;67.44
55990;BME280;41875;55.806;38.082;2022-11-09T11:32:50;99446.94;;;11.74;68.14
55990;BME280;41875;55.806;38.082;2022-11-09T11:35:40;99447.22;;;12.04;67.67
55990;BME280;41875;55.806;38.082;2022-11-09T11:38:34;99446.88;;;12.15;67.41
55990;BME280;41875;55.806;38.082;2022-11-09T11:41:47;99454.63;;;12.33;67.09
55990;BME280;41875;55.806;38.082;2022-11-09T11:44:50;99447.44;;;12.42;66.73
55990;BME280;41875;55.806;38.082;2022-11-09T11:48:08;99440.44;;;12.10;68.06
55990;BME280;41875;55.806;38.082;2022-11-09T11:51:05;99436.16;;;12.40;66.50
55990;BME280;41875;55.806;38.082;2022-11-09T11:54:08;99450.25;;;12.41;66.41
55990;BME280;41875;55.806;38.082;2022-11-09T11:57:06;99441.91;;;11.87;68.62
55990;BME280;41875;55.806;38.082;2022-11-09T12:00:07;99416.59;;;11.52;69.34
55990;BME280;41875;55.806;38.082;2022-11-09T12:03:29;99449.16;;;12.27;67.99
55990;BME280;41875;55.806;38.082;2022-11-09T12:09:52;99446.56;;;12.50;67.30
55990;BME280;41875;55.806;38.082;2022-11-09T12:13:00;99453.19;;;11.89;69.02
55990;BME280;41875;55.806;38.082;2022-11-09T12:15:58;99447.91;;;11.89;68.66
55990;BME280;41875;55.806;38.082;2022-11-09T12:18:57;99447.25;;;11.79;69.45
55990;BME280;41875;55.806;38.082;2022-11-09T12:22:03;99422.88;;;11.67;69.35
55990;BME280;41875;55.806;38.082;2022-11-09T12:24:58;99447.38;;;12.11;68.76
55990;BME280;41875;55.806;38.082;2022-11-09T12:31:26;99448.97;;;12.37;67.16
55990;BME280;41875;55.806;38.082;2022-11-09T12:34:31;99451.28;;;12.40;67.04
55990;BME280;41875;55.806;38.082;2022-11-09T12:37:45;99458.88;;;12.51;66.78
55990;BME280;41875;55.806;38.082;2022-11-09T12:40:41;99456.47;;;12.25;67.77
55990;BME280;41875;55.806;38.082;2022-11-09T12:43:37;99464.34;;;12.01;68.07
55990;BME280;41875;55.806;38.082;2022-11-09T12:46:33;99454.84;;;12.07;68.37
55990;BME280;41875;55.806;38.082;2022-11-09T12:49:35;99462.53;;;11.69;69.99
55990;BME280;41875;55.806;38.082;2022-11-09T12:52:27;99457.50;;;11.90;69.23
55990;BME280;41875;55.806;38.082;2022-11-09T12:55:18;99455.47;;;12.26;67.88
55990;BME280;41875;55.806;38.082;2022-11-09T12:58:20;99457.19;;;12.10;68.74
55990;BME280;41875;55.806;38.082;2022-11-09T13:01:13;99467.84;;;12.50;67.11
55990;BME280;41875;55.806;38.082;2022-11-09T13:04:22;99468.22;;;12.30;67.49
55990;BME280;41875;55.806;38.082;2022-11-09T13:07:18;99466.13;;;12.09;68.44
55990;BME280;41875;55.806;38.082;2022-11-09T13:10:26;99462.63;;;12.17;68.66
55990;BME280;41875;55.806;38.082;2022-11-09T13:13:23;99464.34;;;12.81;66.21
55990;BME280;41875;55.806;38.082;2022-11-09T13:16:35;99442.59;;;11.89;68.55
55990;BME280;41875;55.806;38.082;2022-11-09T13:19:52;99468.66;;;11.86;69.75
55990;BME280;41875;55.806;38.082;2022-11-09T13:22:58;99473.72;;;12.29;68.67
55990;BME280;41875;55.806;38.082;2022-11-09T13:25:48;99475.91;;;12.17;68.07
55990;BME280;41875;55.806;38.082;2022-11-09T13:28:41;99475.53;;;12.28;67.99
55990;BME280;41875;55.806;38.082;2022-11-09T13:32:03;99475.72;;;12.18;68.41
55990;BME280;41875;55.806;38.082;2022-11-09T13:34:53;99475.75;;;12.10;68.63
55990;BME280;41875;55.806;38.082;2022-11-09T13:37:46;99482.59;;;11.88;69.42
55990;BME280;41875;55.806;38.082;2022-11-09T13:40:42;99480.22;;;12.18;68.27
55990;BME280;41875;55.806;38.082;2022-11-09T13:43:30;99480.69;;;12.22;68.09
55990;BME280;41875;55.806;38.082;2022-11-09T13:46:24;99479.59;;;12.08;68.69
55990;BME280;41875;55.806;38.082;2022-11-09T13:49:43;99486.44;;;12.50;67.51
55990;BME280;41875;55.806;38.082;2022-11-09T13:52:50;99482.03;;;12.26;67.98
55990;BME280;41875;55.806;38.082;2022-11-09T13:55:40;99474.78;;;12.11;68.10